Time;durP1;ratioP1;P1;durP2;ratioP2;P2;SDS_P1;SDS_P2;PMS_P1;PMS_P2;Temp;Humidity;BMP_temperature;BMP_pressure;BME280_temperature;BME280_humidity;BME280_pressure;Samples;Min_cycle;Max_cycle;Signal;HPM_P1;HPM_P2
2022/03/28 00:00:13;;;;;;;;;;;;;;;7.91;55.75;100846.84;5010344;28;19931;-85
2022/03/28 00:02:43;;;;;;;;;;;;;;;7.79;55.99;100834.44;5010381;28;19925;-84
2022/03/28 00:05:09;;;;;;;;;;;;;;;7.84;55.83;100846.75;5009879;28;20016;-84
2022/03/28 00:07:34;;;;;;;;;;;;;;;7.72;56.07;100838.69;5010849;28;19926;-84
2022/03/28 00:09:59;;;;;;;;;;;;;;;7.52;56.76;100843.66;5039008;28;19922;-85
2022/03/28 00:12:25;;;;;;;;;;;;;;;7.50;57.29;100840.13;5010502;28;19976;-85
2022/03/28 00:14:50;;;;;;;;;;;;;;;7.43;57.45;100841.78;5009946;28;19922;-85
2022/03/28 00:17:16;;;;;;;;;;;;;;;7.23;57.85;100836.19;5042014;28;19928;-84
2022/03/28 00:19:41;;;;;;;;;;;;;;;7.20;58.14;100849.25;5009696;28;19965;-85
2022/03/28 00:22:06;;;;;;;;;;;;;;;7.34;57.71;100847.75;5030219;28;19925;-83
2022/03/28 00:24:32;;;;;;;;;;;;;;;7.28;57.90;100849.41;5010176;28;19921;-84
2022/03/28 00:26:58;;;;;;;;;;;;;;;7.12;58.73;100851.75;5009513;28;20040;-84
2022/03/28 00:29:23;;;;;;;;;;;;;;;7.05;59.40;100859.50;5009769;28;20434;-83
2022/03/28 00:31:49;;;;;;;;;;;;;;;6.90;60.50;100857.47;5010383;28;20483;-85
2022/03/28 00:34:15;;;;;;;;;;;;;;;6.94;60.65;100854.91;5009792;28;20403;-83
2022/03/28 00:36:41;;;;;;;;;;;;;;;6.94;60.60;100857.53;5010100;28;19917;-85
2022/03/28 00:39:06;;;;;;;;;;;;;;;6.94;60.40;100861.91;5008202;28;19925;-84
2022/03/28 00:41:32;;;;;;;;;;;;;;;6.96;60.73;100860.19;5010058;28;19922;-84
2022/03/28 00:43:58;;;;;;;;;;;;;;;6.87;61.20;100863.53;5010342;28;19968;-84
2022/03/28 00:46:24;;;;;;;;;;;;;;;6.92;61.00;100868.84;5010103;28;20004;-84
2022/03/28 00:48:50;;;;;;;;;;;;;;;6.66;61.93;100863.13;5009276;28;20019;-84
2022/03/28 00:51:17;;;;;;;;;;;;;;;6.55;62.45;100862.91;5008924;28;19925;-84
2022/03/28 00:53:42;;;;;;;;;;;;;;;6.60;62.31;100863.91;5009379;28;19921;-85
2022/03/28 00:56:08;;;;;;;;;;;;;;;6.49;62.38;100866.31;5010171;28;20347;-84
2022/03/28 00:58:33;;;;;;;;;;;;;;;6.24;62.24;100822.97;5009894;28;20686;-84
2022/03/28 01:00:59;;;;;;;;;;;;;;;6.39;62.45;100875.69;5009826;28;19932;-84
2022/03/28 01:03:24;;;;;;;;;;;;;;;6.37;62.83;100869.53;5009784;28;20406;-85
2022/03/28 01:05:49;;;;;;;;;;;;;;;6.53;62.11;100875.09;5009084;28;19956;-84
2022/03/28 01:08:15;;;;;;;;;;;;;;;6.59;61.86;100877.84;5041203;28;19925;-85
2022/03/28 01:10:42;;;;;;;;;;;;;;;6.69;61.95;100879.81;5009041;28;19965;-86
2022/03/28 01:13:08;;;;;;;;;;;;;;;6.77;61.27;100879.97;5024843;28;19921;-86
2022/03/28 01:15:33;;;;;;;;;;;;;;;6.61;62.31;100870.88;5040347;28;19932;-86
2022/03/28 01:18:09;;;;;;;;;;;;;;;6.63;62.25;100871.81;5007560;28;19921;-85
2022/03/28 01:20:38;;;;;;;;;;;;;;;6.69;62.30;100876.28;5041019;28;19960;-85
2022/03/28 01:23:04;;;;;;;;;;;;;;;6.62;62.34;100873.53;5008671;28;19929;-84
2022/03/28 01:25:30;;;;;;;;;;;;;;;6.36;63.44;100869.50;5009014;28;20289;-85
2022/03/28 01:27:57;;;;;;;;;;;;;;;6.38;63.57;100866.09;5007921;28;20456;-85
2022/03/28 01:30:23;;;;;;;;;;;;;;;6.34;63.74;100872.09;5009001;28;19925;-84
2022/03/28 01:32:50;;;;;;;;;;;;;;;6.37;64.06;100879.16;5009895;28;19918;-84
2022/03/28 01:35:28;;;;;;;;;;;;;;;6.49;63.57;100871.53;5008244;28;20378;-85
2022/03/28 01:37:54;;;;;;;;;;;;;;;6.39;64.53;100874.81;5008710;28;19925;-84
2022/03/28 01:40:19;;;;;;;;;;;;;;;6.32;65.47;100886.91;5007746;28;19976;-84
2022/03/28 01:42:45;;;;;;;;;;;;;;;6.54;64.76;100880.38;5008777;28;19921;-84
2022/03/28 01:45:12;;;;;;;;;;;;;;;6.57;65.11;100883.06;5008944;28;20358;-85
2022/03/28 01:47:38;;;;;;;;;;;;;;;6.36;66.52;100885.25;5008085;28;20387;-85
2022/03/28 01:50:03;;;;;;;;;;;;;;;6.31;67.31;100887.75;5039694;28;19925;-84
2022/03/28 01:52:29;;;;;;;;;;;;;;;6.25;67.96;100878.03;5008159;28;19917;-85
2022/03/28 01:54:54;;;;;;;;;;;;;;;6.21;68.05;100884.06;5007931;28;19925;-84
2022/03/28 01:57:19;;;;;;;;;;;;;;;6.19;68.23;100879.63;5008238;28;19948;-85
2022/03/28 01:59:44;;;;;;;;;;;;;;;6.28;68.23;100885.94;5007918;28;20334;-85
2022/03/28 02:02:10;;;;;;;;;;;;;;;6.34;68.37;100889.56;5007973;28;20418;-83
2022/03/28 02:04:35;;;;;;;;;;;;;;;6.18;69.44;100888.34;5008962;28;19913;-84
2022/03/28 02:07:00;;;;;;;;;;;;;;;6.18;69.57;100885.72;5007825;28;19929;-84
2022/03/28 02:09:26;;;;;;;;;;;;;;;6.23;69.61;100887.59;5007871;28;19922;-84
2022/03/28 02:11:51;;;;;;;;;;;;;;;6.20;69.63;100884.03;5007797;28;19987;-84
2022/03/28 02:14:16;;;;;;;;;;;;;;;6.25;69.28;100885.88;5022875;28;20016;-86
2022/03/28 02:16:42;;;;;;;;;;;;;;;6.22;69.59;100890.19;5007992;28;19995;-83
2022/03/28 02:19:07;;;;;;;;;;;;;;;6.25;68.91;100891.13;5006627;28;20004;-84
2022/03/28 02:21:32;;;;;;;;;;;;;;;6.22;69.27;100898.03;5008639;28;19928;-84
2022/03/28 02:23:59;;;;;;;;;;;;;;;6.15;69.70;100894.41;5007876;28;20319;-84
2022/03/28 02:26:25;;;;;;;;;;;;;;;6.09;70.35;100896.91;5039468;28;19998;-85
2022/03/28 02:28:50;;;;;;;;;;;;;;;6.07;70.38;100890.72;5007344;28;19933;-84
2022/03/28 02:31:15;;;;;;;;;;;;;;;5.95;71.00;100893.94;5007050;28;19921;-85
2022/03/28 02:33:41;;;;;;;;;;;;;;;6.00;70.87;100896.69;5019812;28;19926;-84
2022/03/28 02:36:06;;;;;;;;;;;;;;;5.91;71.38;100897.31;5005035;28;20370;-84
2022/03/28 02:38:31;;;;;;;;;;;;;;;5.72;72.43;100906.47;5008095;28;19921;-84
2022/03/28 02:40:59;;;;;;;;;;;;;;;5.72;72.43;100898.63;5007714;28;20468;-84
2022/03/28 02:43:25;;;;;;;;;;;;;;;5.66;73.51;100904.59;5007233;28;20430;-86
2022/03/28 02:45:50;;;;;;;;;;;;;;;5.63;73.66;100901.03;5007858;28;19925;-84
2022/03/28 02:48:15;;;;;;;;;;;;;;;5.56;74.63;100903.50;5007642;28;19925;-87
2022/03/28 02:50:41;;;;;;;;;;;;;;;5.57;74.92;100905.25;5008109;28;19925;-85
2022/03/28 02:53:06;;;;;;;;;;;;;;;5.71;74.71;100912.56;5040564;28;19921;-84
2022/03/28 02:55:32;;;;;;;;;;;;;;;5.68;75.03;100912.47;5005399;28;20331;-89
2022/03/28 02:57:58;;;;;;;;;;;;;;;5.61;75.69;100913.16;5021497;28;19925;-86
2022/03/28 03:00:23;;;;;;;;;;;;;;;5.69;75.48;100916.88;5007518;28;20502;-85
2022/03/28 03:02:48;;;;;;;;;;;;;;;5.70;75.33;100916.00;5007561;28;20433;-83
2022/03/28 03:05:14;;;;;;;;;;;;;;;5.70;75.09;100914.31;5007593;28;20452;-84
2022/03/28 03:07:39;;;;;;;;;;;;;;;5.44;76.51;100912.75;5006449;28;20407;-84
2022/03/28 03:10:05;;;;;;;;;;;;;;;5.52;76.00;100933.03;5007593;28;19967;-83
2022/03/28 03:12:30;;;;;;;;;;;;;;;5.55;76.02;100916.53;5007446;28;20019;-83
2022/03/28 03:14:56;;;;;;;;;;;;;;;5.53;76.08;100924.34;5007016;28;19925;-88
2022/03/28 03:17:21;;;;;;;;;;;;;;;5.59;75.92;100920.97;5007939;28;20055;-90
2022/03/28 03:19:47;;;;;;;;;;;;;;;5.54;76.44;100930.47;5008362;28;20019;-90
2022/03/28 03:22:15;;;;;;;;;;;;;;;5.51;76.50;100933.88;5023803;28;19932;-91
2022/03/28 03:24:41;;;;;;;;;;;;;;;5.45;77.00;100931.09;5008805;28;19914;-95
2022/03/28 03:27:06;;;;;;;;;;;;;;;5.42;77.42;100938.88;5022800;28;20475;-89
2022/03/28 03:29:33;;;;;;;;;;;;;;;5.53;76.75;100941.78;5034884;28;19931;-96
2022/03/28 03:31:58;;;;;;;;;;;;;;;5.46;76.67;100943.34;5023256;28;19930;-85
2022/03/28 03:34:23;;;;;;;;;;;;;;;5.42;76.50;100944.09;5010303;28;19978;-87
2022/03/28 03:36:50;;;;;;;;;;;;;;;5.63;75.86;100943.78;5018619;28;19925;-85
2022/03/28 03:39:15;;;;;;;;;;;;;;;5.71;74.78;100949.22;5006027;28;19921;-84
2022/03/28 03:41:41;;;;;;;;;;;;;;;5.70;74.09;100947.44;5006870;28;20450;-84
2022/03/28 03:44:06;;;;;;;;;;;;;;;5.71;74.14;100954.44;5006874;28;20469;-83
2022/03/28 03:46:32;;;;;;;;;;;;;;;5.81;73.50;100950.31;5007251;28;20327;-85
2022/03/28 03:48:57;;;;;;;;;;;;;;;5.61;74.24;100953.34;5005525;28;19976;-83
2022/03/28 03:51:23;;;;;;;;;;;;;;;5.69;73.96;100961.38;5007141;28;19926;-87
2022/03/28 03:53:48;;;;;;;;;;;;;;;5.66;73.58;100961.31;5022422;28;19917;-82
2022/03/28 03:56:13;;;;;;;;;;;;;;;5.51;73.90;100964.41;5007195;28;19918;-82
2022/03/28 03:58:39;;;;;;;;;;;;;;;5.66;73.26;100971.78;5013090;28;20004;-85
2022/03/28 04:01:04;;;;;;;;;;;;;;;5.60;72.84;100974.25;5006814;28;19973;-83
2022/03/28 04:03:30;;;;;;;;;;;;;;;5.48;73.58;100969.56;5006959;28;19926;-83
2022/03/28 04:05:55;;;;;;;;;;;;;;;5.56;73.21;100975.88;5007095;28;19929;-83
2022/03/28 04:08:20;;;;;;;;;;;;;;;5.50;72.86;100976.63;5006616;28;19972;-83
2022/03/28 04:10:46;;;;;;;;;;;;;;;5.67;72.44;100982.28;5006769;28;19928;-82
2022/03/28 04:13:13;;;;;;;;;;;;;;;5.82;71.49;100992.25;5018469;28;20390;-84
2022/03/28 04:15:38;;;;;;;;;;;;;;;5.99;70.68;100982.22;5025796;28;19928;-82
2022/03/28 04:18:03;;;;;;;;;;;;;;;5.99;70.27;100991.81;5010387;28;20008;-83
2022/03/28 04:20:29;;;;;;;;;;;;;;;6.06;70.12;100999.00;5010305;28;20409;-83
2022/03/28 04:22:55;;;;;;;;;;;;;;;6.03;70.13;101002.41;5010741;28;19982;-84
2022/03/28 04:25:20;;;;;;;;;;;;;;;6.25;69.43;101001.19;5009883;28;19929;-82
2022/03/28 04:27:46;;;;;;;;;;;;;;;6.27;68.76;101006.47;5010596;28;20587;-83
2022/03/28 04:30:12;;;;;;;;;;;;;;;6.34;68.97;101012.75;5009207;28;19983;-83
2022/03/28 04:32:37;;;;;;;;;;;;;;;6.48;68.19;101008.69;5009644;28;20028;-83
2022/03/28 04:35:04;;;;;;;;;;;;;;;6.36;67.65;101019.78;5010013;28;20454;-83
2022/03/28 04:37:36;;;;;;;;;;;;;;;6.50;67.71;101021.84;5041702;28;19932;-83
2022/03/28 04:40:03;;;;;;;;;;;;;;;6.43;67.69;101012.97;5008592;28;19972;-82
2022/03/28 04:42:28;;;;;;;;;;;;;;;6.49;67.60;101020.97;5010107;28;19932;-82
2022/03/28 04:44:53;;;;;;;;;;;;;;;6.53;67.42;101022.78;5010383;28;20400;-82
2022/03/28 04:47:19;;;;;;;;;;;;;;;6.41;67.92;101027.75;5009207;28;20404;-82
2022/03/28 04:49:44;;;;;;;;;;;;;;;6.37;68.28;101029.44;5009897;28;19925;-82
2022/03/28 04:52:09;;;;;;;;;;;;;;;6.44;68.56;101031.34;5007811;28;19928;-83
2022/03/28 04:54:36;;;;;;;;;;;;;;;6.62;68.69;101035.22;5009357;28;19921;-83
2022/03/28 04:57:02;;;;;;;;;;;;;;;6.77;67.60;101032.06;5009927;28;19932;-83
2022/03/28 04:59:28;;;;;;;;;;;;;;;6.63;68.43;101037.00;5010915;28;19922;-83
2022/03/28 05:01:53;;;;;;;;;;;;;;;6.65;68.72;101034.44;5010118;28;19917;-83
2022/03/28 05:04:19;;;;;;;;;;;;;;;6.69;68.52;101039.78;4992581;28;19960;-84
2022/03/28 05:06:44;;;;;;;;;;;;;;;6.44;69.45;101039.22;5024380;28;20418;-84
2022/03/28 05:09:09;;;;;;;;;;;;;;;6.61;69.43;101049.19;5008774;28;19925;-85
2022/03/28 05:11:35;;;;;;;;;;;;;;;6.74;68.90;101053.00;5007779;28;19926;-84
2022/03/28 05:14:00;;;;;;;;;;;;;;;6.68;69.46;101050.22;5009118;28;20320;-84
2022/03/28 05:16:26;;;;;;;;;;;;;;;6.58;70.06;101043.88;5007920;28;19928;-86
2022/03/28 05:18:51;;;;;;;;;;;;;;;6.70;70.43;101044.16;5008786;28;20012;-87
2022/03/28 05:21:16;;;;;;;;;;;;;;;6.87;70.16;101046.28;5009622;28;19960;-86
2022/03/28 05:23:42;;;;;;;;;;;;;;;6.92;70.49;101047.25;5010055;28;19971;-85
2022/03/28 05:26:07;;;;;;;;;;;;;;;7.19;69.69;101036.44;5009628;28;19926;-85
2022/03/28 05:28:32;;;;;;;;;;;;;;;7.28;68.92;101031.38;5009604;28;19922;-85
2022/03/28 05:30:58;;;;;;;;;;;;;;;7.62;68.44;101034.66;5041617;28;19918;-84
2022/03/28 05:33:24;;;;;;;;;;;;;;;7.80;67.11;101034.13;5009449;28;19967;-84
2022/03/28 05:35:50;;;;;;;;;;;;;;;8.23;65.99;101040.09;5009408;28;19957;-84
2022/03/28 05:38:16;;;;;;;;;;;;;;;8.40;65.04;101036.81;5009565;28;20292;-84
2022/03/28 05:40:41;;;;;;;;;;;;;;;8.50;64.04;101037.91;5009591;28;19948;-85
2022/03/28 05:43:07;;;;;;;;;;;;;;;8.80;62.73;101034.81;5009433;28;19929;-84
2022/03/28 05:45:34;;;;;;;;;;;;;;;9.11;63.70;101040.47;5008770;28;19940;-86
2022/03/28 05:47:59;;;;;;;;;;;;;;;9.34;60.19;101045.13;5040698;28;19943;-87
2022/03/28 05:50:25;;;;;;;;;;;;;;;9.90;60.06;101049.22;5009433;28;19921;-85
2022/03/28 05:52:50;;;;;;;;;;;;;;;10.15;57.27;101045.06;5009079;28;19922;-86
2022/03/28 05:55:16;;;;;;;;;;;;;;;10.45;56.64;101043.56;5007674;28;19932;-85
2022/03/28 05:57:41;;;;;;;;;;;;;;;10.19;54.23;101047.75;5008257;28;20419;-87
2022/03/28 06:00:09;;;;;;;;;;;;;;;10.32;55.64;101054.00;5040747;28;19964;-84
2022/03/28 06:02:35;;;;;;;;;;;;;;;10.61;54.58;101052.47;5008121;28;19928;-84
2022/03/28 06:05:00;;;;;;;;;;;;;;;10.60;51.62;101058.59;5008189;28;19921;-84
2022/03/28 06:07:25;;;;;;;;;;;;;;;10.30;51.32;101046.94;5008735;28;20063;-85
2022/03/28 06:09:51;;;;;;;;;;;;;;;10.65;50.17;101054.25;5016922;28;19978;-85
2022/03/28 06:12:16;;;;;;;;;;;;;;;10.21;50.16;101051.28;5028452;28;20000;-84
2022/03/28 06:14:41;;;;;;;;;;;;;;;10.60;50.38;101053.31;5008844;28;19979;-85
2022/03/28 06:17:07;;;;;;;;;;;;;;;10.78;49.72;101050.78;5008478;28;19979;-84
2022/03/28 06:19:32;;;;;;;;;;;;;;;11.01;49.19;101053.56;5007979;28;19932;-84
2022/03/28 06:21:59;;;;;;;;;;;;;;;11.10;50.02;101058.00;5008001;28;19928;-83
2022/03/28 06:24:24;;;;;;;;;;;;;;;11.39;48.57;101052.84;5008139;28;19921;-84
2022/03/28 06:26:50;;;;;;;;;;;;;;;11.16;48.56;101051.88;5007388;28;20399;-84
2022/03/28 06:29:15;;;;;;;;;;;;;;;11.28;48.97;101058.09;5008541;28;20307;-84
2022/03/28 06:31:41;;;;;;;;;;;;;;;11.36;48.59;101057.25;5008532;28;19928;-85
2022/03/28 06:34:07;;;;;;;;;;;;;;;11.74;47.46;101052.06;5023521;28;20316;-85
2022/03/28 06:36:33;;;;;;;;;;;;;;;11.76;48.03;101052.94;5007054;28;19992;-85
2022/03/28 06:38:58;;;;;;;;;;;;;;;11.81;47.06;101051.16;5008553;28;20075;-84
2022/03/28 06:41:23;;;;;;;;;;;;;;;11.91;47.50;101053.81;5023070;28;19918;-84
2022/03/28 06:43:49;;;;;;;;;;;;;;;11.95;47.16;101058.28;5008102;28;19924;-84
2022/03/28 06:46:14;;;;;;;;;;;;;;;12.18;46.90;101051.22;5007707;28;20404;-84
2022/03/28 06:48:40;;;;;;;;;;;;;;;12.18;46.44;101048.59;5008548;28;19979;-84
2022/03/28 06:51:06;;;;;;;;;;;;;;;12.52;46.54;101050.34;5038999;28;20449;-84
2022/03/28 06:53:32;;;;;;;;;;;;;;;12.34;45.71;101043.28;5007295;28;19925;-85
2022/03/28 06:55:58;;;;;;;;;;;;;;;12.33;45.82;101042.41;5008377;28;19924;-87
2022/03/28 06:58:23;;;;;;;;;;;;;;;12.28;46.26;101044.19;5007633;28;20245;-86
2022/03/28 07:00:49;;;;;;;;;;;;;;;12.52;45.75;101042.41;5007133;28;19926;-84
2022/03/28 07:03:14;;;;;;;;;;;;;;;12.46;45.58;101039.75;5007865;28;20403;-84
2022/03/28 07:05:40;;;;;;;;;;;;;;;12.51;45.13;101036.22;5006864;28;19918;-83
2022/03/28 07:08:05;;;;;;;;;;;;;;;13.01;44.78;101044.06;5007459;28;20395;-84
2022/03/28 07:10:30;;;;;;;;;;;;;;;13.07;45.18;101039.59;5007026;28;19929;-83
2022/03/28 07:12:56;;;;;;;;;;;;;;;13.23;44.02;101036.88;5040158;28;19925;-84
2022/03/28 07:15:21;;;;;;;;;;;;;;;13.23;44.25;101039.53;5006961;28;20292;-84
2022/03/28 07:17:52;;;;;;;;;;;;;;;13.26;44.42;101045.69;5007184;28;19980;-84
2022/03/28 07:20:18;;;;;;;;;;;;;;;13.20;43.81;101039.56;5007896;28;19917;-85
2022/03/28 07:22:43;;;;;;;;;;;;;;;12.77;44.09;101034.41;5007279;28;19917;-85
2022/03/28 07:25:09;;;;;;;;;;;;;;;12.97;44.31;101031.69;5007437;28;19926;-86
2022/03/28 07:27:39;;;;;;;;;;;;;;;13.21;43.93;101041.31;5007607;28;19963;-83
2022/03/28 07:30:05;;;;;;;;;;;;;;;13.29;44.67;101039.50;5007762;28;20004;-84
2022/03/28 07:32:30;;;;;;;;;;;;;;;13.50;43.84;101038.56;5007519;28;20475;-84
2022/03/28 07:34:55;;;;;;;;;;;;;;;13.90;42.38;101034.75;5007525;28;19925;-84
2022/03/28 07:37:21;;;;;;;;;;;;;;;14.22;42.44;101030.97;5007748;28;19925;-83
2022/03/28 07:39:46;;;;;;;;;;;;;;;14.11;43.15;101033.72;5007302;28;20370;-81
2022/03/28 07:42:13;;;;;;;;;;;;;;;14.06;42.37;101025.78;5007457;28;19917;-82
2022/03/28 07:44:39;;;;;;;;;;;;;;;14.32;43.17;101019.38;5007719;28;20028;-83
2022/03/28 07:47:08;;;;;;;;;;;;;;;14.70;41.64;101020.78;5007573;28;20442;-84
2022/03/28 07:49:35;;;;;;;;;;;;;;;15.18;41.06;101017.56;5009293;28;19928;-82
2022/03/28 07:52:01;;;;;;;;;;;;;;;14.92;41.18;101013.47;5011523;28;20384;-83
2022/03/28 07:54:26;;;;;;;;;;;;;;;15.24;40.07;101008.63;5042465;28;19933;-83
2022/03/28 07:56:51;;;;;;;;;;;;;;;15.36;40.54;101011.13;5011009;28;19937;-82
2022/03/28 07:59:16;;;;;;;;;;;;;;;15.03;40.71;101006.22;5011651;28;19926;-82
2022/03/28 08:01:42;;;;;;;;;;;;;;;15.56;41.02;101010.84;5011060;28;19929;-83
2022/03/28 08:04:07;;;;;;;;;;;;;;;15.83;38.87;101004.22;5010923;28;19928;-82
2022/03/28 08:06:33;;;;;;;;;;;;;;;15.90;39.53;101003.25;5010958;28;20393;-82
2022/03/28 08:08:58;;;;;;;;;;;;;;;15.83;38.96;101000.72;5010140;28;19927;-82
2022/03/28 08:11:23;;;;;;;;;;;;;;;16.24;38.67;100992.03;5011207;28;19980;-82
2022/03/28 08:13:48;;;;;;;;;;;;;;;16.36;39.19;100993.59;5011069;28;19921;-83
2022/03/28 08:16:14;;;;;;;;;;;;;;;16.71;38.24;100986.69;5042572;28;19972;-83
2022/03/28 08:18:41;;;;;;;;;;;;;;;16.27;38.93;100975.13;5010261;28;19922;-82
2022/03/28 08:21:06;;;;;;;;;;;;;;;15.94;39.07;100985.44;5010506;28;20379;-83
2022/03/28 08:23:32;;;;;;;;;;;;;;;15.61;40.22;100976.19;5041847;28;19961;-84
2022/03/28 08:25:59;;;;;;;;;;;;;;;15.64;39.86;100974.38;5041567;28;19975;-85
2022/03/28 08:28:24;;;;;;;;;;;;;;;15.95;38.98;100970.38;5010483;28;19932;-83
2022/03/28 08:30:49;;;;;;;;;;;;;;;16.42;38.51;100957.97;5010416;28;19926;-82
2022/03/28 08:33:15;;;;;;;;;;;;;;;16.56;37.97;100963.94;5010362;28;19948;-82
2022/03/28 08:35:40;;;;;;;;;;;;;;;16.07;39.12;100962.19;5008834;28;19929;-82
2022/03/28 08:38:06;;;;;;;;;;;;;;;16.46;38.74;100957.00;5010579;28;20012;-82
2022/03/28 08:40:31;;;;;;;;;;;;;;;16.71;39.24;100953.88;5010252;28;19921;-83
2022/03/28 08:42:57;;;;;;;;;;;;;;;15.93;39.97;100951.78;5010229;28;19980;-83
2022/03/28 08:45:22;;;;;;;;;;;;;;;15.87;39.22;100941.22;5009332;28;20009;-83
2022/03/28 08:47:49;;;;;;;;;;;;;;;16.22;39.90;100937.94;5009965;28;20408;-83
2022/03/28 08:50:15;;;;;;;;;;;;;;;16.14;39.35;100933.66;5009837;28;19921;-84
2022/03/28 08:52:41;;;;;;;;;;;;;;;16.37;40.03;100926.09;5009018;28;19972;-86
2022/03/28 08:55:10;;;;;;;;;;;;;;;16.75;38.58;100920.94;5009717;28;19979;-84
2022/03/28 08:57:36;;;;;;;;;;;;;;;16.25;39.51;100923.66;5008695;28;19921;-84
2022/03/28 09:00:04;;;;;;;;;;;;;;;15.98;39.15;100917.97;5009416;28;19931;-84
2022/03/28 09:02:39;;;;;;;;;;;;;;;16.05;38.87;100916.06;5010488;28;20519;-84
2022/03/28 09:05:04;;;;;;;;;;;;;;;15.96;39.12;100908.25;5009515;28;20410;-83
2022/03/28 09:07:30;;;;;;;;;;;;;;;16.10;39.62;100901.78;5009973;28;20008;-83
2022/03/28 09:09:56;;;;;;;;;;;;;;;16.49;38.60;100898.34;5041328;28;19929;-84
2022/03/28 09:12:21;;;;;;;;;;;;;;;16.51;38.66;100896.53;5009815;28;19944;-83
2022/03/28 09:14:54;;;;;;;;;;;;;;;16.51;37.99;100891.22;5009812;28;20395;-83
2022/03/28 09:17:20;;;;;;;;;;;;;;;16.19;39.52;100891.84;5009042;28;20040;-85
2022/03/28 09:19:50;;;;;;;;;;;;;;;16.24;38.39;100888.19;5009293;28;20016;-83
2022/03/28 09:22:25;;;;;;;;;;;;;;;16.07;39.42;100882.31;5008890;28;19988;-84
2022/03/28 09:24:54;;;;;;;;;;;;;;;16.10;39.34;100875.16;5009011;28;19922;-83
2022/03/28 09:27:21;;;;;;;;;;;;;;;15.99;40.39;100871.81;5009036;28;19921;-85
2022/03/28 09:29:52;;;;;;;;;;;;;;;16.27;38.47;100865.97;5009313;28;19928;-84
2022/03/28 09:32:22;;;;;;;;;;;;;;;16.41;38.25;100869.22;5008084;28;20457;-84
2022/03/28 09:35:06;;;;;;;;;;;;;;;16.72;38.16;100870.38;5009008;28;19921;-83
2022/03/28 09:37:46;;;;;;;;;;;;;;;17.16;37.64;100865.84;5009851;28;20012;-83
2022/03/28 09:40:31;;;;;;;;;;;;;;;16.65;38.47;100857.19;5008415;28;20112;-83
2022/03/28 09:42:57;;;;;;;;;;;;;;;16.83;38.16;100847.88;5008897;28;19929;-82
2022/03/28 09:45:38;;;;;;;;;;;;;;;16.92;38.01;100845.97;5008641;28;19922;-82
2022/03/28 09:48:08;;;;;;;;;;;;;;;16.99;37.93;100844.91;5014550;28;19928;-83
2022/03/28 09:50:35;;;;;;;;;;;;;;;17.02;38.83;100843.97;5009250;28;19921;-84
2022/03/28 09:53:11;;;;;;;;;;;;;;;17.20;37.74;100837.34;5008134;28;19929;-83
2022/03/28 09:55:49;;;;;;;;;;;;;;;17.16;37.42;100837.41;5008953;28;19921;-84
2022/03/28 09:58:30;;;;;;;;;;;;;;;17.26;36.69;100829.19;5007927;28;19917;-83
2022/03/28 10:00:55;;;;;;;;;;;;;;;16.85;36.32;100825.66;5008998;28;19925;-83
2022/03/28 10:03:22;;;;;;;;;;;;;;;16.89;36.73;100822.06;5009048;28;19921;-83
2022/03/28 10:05:48;;;;;;;;;;;;;;;17.29;36.30;100818.44;5009073;28;19952;-83
2022/03/28 10:08:13;;;;;;;;;;;;;;;17.16;36.93;100812.50;5009117;28;19917;-83
2022/03/28 10:10:38;;;;;;;;;;;;;;;17.08;36.91;100810.03;5008030;28;19926;-84
2022/03/28 10:13:04;;;;;;;;;;;;;;;17.20;36.61;100803.53;5007804;28;20410;-84
2022/03/28 10:15:30;;;;;;;;;;;;;;;17.17;36.22;100798.28;5008952;28;19959;-85
2022/03/28 10:17:55;;;;;;;;;;;;;;;17.07;36.73;100791.41;5008643;28;19929;-86
2022/03/28 10:20:21;;;;;;;;;;;;;;;17.49;36.29;100785.94;5008603;28;19926;-81
2022/03/28 10:22:48;;;;;;;;;;;;;;;17.53;35.78;100779.56;5008417;28;19929;-82
2022/03/28 10:25:19;;;;;;;;;;;;;;;17.48;36.48;100774.38;5008396;28;20380;-82
2022/03/28 10:27:45;;;;;;;;;;;;;;;17.65;35.75;100765.91;5008365;28;19928;-82
2022/03/28 10:30:27;;;;;;;;;;;;;;;17.99;36.69;100767.66;5023297;28;19921;-82
2022/03/28 10:33:08;;;;;;;;;;;;;;;18.46;35.57;100760.97;5008578;28;19925;-82
2022/03/28 10:35:33;;;;;;;;;;;;;;;18.60;35.24;100748.94;5040222;28;20346;-82
2022/03/28 10:38:18;;;;;;;;;;;;;;;18.85;34.07;100748.19;5008290;28;19921;-83
2022/03/28 10:40:53;;;;;;;;;;;;;;;18.02;34.99;100719.53;5008427;28;19965;-83
2022/03/28 10:43:18;;;;;;;;;;;;;;;18.33;34.28;100739.97;5008002;28;19980;-83
2022/03/28 10:45:57;;;;;;;;;;;;;;;18.05;35.63;100730.13;5008283;28;19921;-82
2022/03/28 10:48:42;;;;;;;;;;;;;;;18.04;35.87;100720.38;5040010;28;20418;-83
2022/03/28 10:51:15;;;;;;;;;;;;;;;18.54;34.16;100718.88;5008315;28;20019;-83
2022/03/28 10:53:41;;;;;;;;;;;;;;;18.75;34.46;100710.16;5007350;28;19995;-82
2022/03/28 10:56:11;;;;;;;;;;;;;;;18.70;34.78;100704.06;5007786;28;19976;-83
2022/03/28 10:58:38;;;;;;;;;;;;;;;18.89;34.80;100696.38;5007609;28;20103;-83
2022/03/28 11:01:12;;;;;;;;;;;;;;;18.40;35.24;100697.94;5008107;28;19917;-84
2022/03/28 11:03:38;;;;;;;;;;;;;;;18.40;34.77;100685.44;5008118;28;19917;-84
2022/03/28 11:06:04;;;;;;;;;;;;;;;18.51;34.74;100684.25;5007136;28;20051;-84
2022/03/28 11:08:35;;;;;;;;;;;;;;;18.75;33.46;100677.19;5022922;28;19932;-84
2022/03/28 11:11:13;;;;;;;;;;;;;;;19.06;34.92;100669.06;5007015;28;19917;-83
2022/03/28 11:13:39;;;;;;;;;;;;;;;19.13;34.84;100669.72;5007136;28;19913;-84
2022/03/28 11:16:04;;;;;;;;;;;;;;;19.13;34.01;100662.56;5028847;28;19926;-84
2022/03/28 11:18:29;;;;;;;;;;;;;;;19.54;33.23;100656.66;4987593;28;19972;-84
2022/03/28 11:20:55;;;;;;;;;;;;;;;19.73;32.68;100651.47;4987460;28;20010;-85
2022/03/28 11:23:20;;;;;;;;;;;;;;;19.47;33.60;100652.44;4997340;28;19921;-85
2022/03/28 11:25:49;;;;;;;;;;;;;;;19.09;34.09;100646.66;5007587;28;19999;-83
2022/03/28 11:28:15;;;;;;;;;;;;;;;19.36;32.91;100647.50;5006597;28;20012;-83
2022/03/28 11:30:49;;;;;;;;;;;;;;;19.15;33.85;100641.09;5007614;28;20431;-83
2022/03/28 11:33:19;;;;;;;;;;;;;;;18.77;35.20;100632.59;5007815;28;19917;-83
2022/03/28 11:35:54;;;;;;;;;;;;;;;18.92;34.55;100624.09;5007427;28;19926;-83
2022/03/28 11:38:20;;;;;;;;;;;;;;;18.77;35.33;100622.78;5006960;28;19921;-83
2022/03/28 11:40:45;;;;;;;;;;;;;;;19.23;34.86;100614.97;5006847;28;19921;-83
2022/03/28 11:43:11;;;;;;;;;;;;;;;19.22;33.76;100610.53;5007291;28;20385;-85
2022/03/28 11:45:45;;;;;;;;;;;;;;;19.17;34.48;100612.53;5007239;28;19917;-85
2022/03/28 11:48:10;;;;;;;;;;;;;;;19.03;34.44;100609.44;5007171;28;19925;-85
2022/03/28 11:50:35;;;;;;;;;;;;;;;19.16;34.14;100604.56;5007475;28;19940;-85
2022/03/28 11:53:00;;;;;;;;;;;;;;;18.96;34.72;100593.63;5006380;28;19936;-86
2022/03/28 11:55:27;;;;;;;;;;;;;;;19.28;35.86;100599.63;5007537;28;20391;-86
2022/03/28 12:00:37;;;;;;;;;;;;;;;19.33;33.67;100580.72;5007703;28;20678;-85
2022/03/28 12:03:03;;;;;;;;;;;;;;;19.72;34.37;100574.78;5007258;28;19921;-85
2022/03/28 12:05:31;;;;;;;;;;;;;;;19.52;33.64;100578.22;5006562;28;19932;-85
2022/03/28 12:07:57;;;;;;;;;;;;;;;19.20;33.93;100577.66;5006630;28;19964;-85
2022/03/28 12:10:25;;;;;;;;;;;;;;;19.22;34.48;100570.44;5006186;28;19956;-84
2022/03/28 12:12:51;;;;;;;;;;;;;;;19.09;35.09;100563.78;5007066;28;19940;-84
2022/03/28 12:15:26;;;;;;;;;;;;;;;19.09;33.96;100562.00;5006734;28;20326;-85
2022/03/28 12:17:52;;;;;;;;;;;;;;;19.24;34.18;100557.84;5006668;28;20470;-84
2022/03/28 12:20:21;;;;;;;;;;;;;;;19.33;33.27;100552.16;5006522;28;19917;-85
2022/03/28 12:22:47;;;;;;;;;;;;;;;19.26;33.90;100553.34;5007188;28;19921;-86
2022/03/28 12:25:42;;;;;;;;;;;;;;;19.39;33.57;100537.69;5006556;28;19960;-87
2022/03/28 12:28:15;;;;;;;;;;;;;;;19.75;34.26;100537.19;5014135;28;19932;-86
2022/03/28 12:30:44;;;;;;;;;;;;;;;19.62;33.66;100547.50;5006855;28;20618;-86
2022/03/28 12:33:11;;;;;;;;;;;;;;;19.68;32.81;100541.06;5038242;28;19972;-87
2022/03/28 12:35:45;;;;;;;;;;;;;;;20.27;33.03;100518.16;5007620;28;19925;-85
2022/03/28 12:38:13;;;;;;;;;;;;;;;20.34;33.89;100521.44;5010691;28;19921;-86
2022/03/28 12:40:40;;;;;;;;;;;;;;;20.16;32.87;100521.28;5009505;28;19949;-86